Moline, Kansas
Current Conditions -  °F | °C
As of 1:15 AM on Saturday 25 Oct 2014 (Local Time) from KIDP Reporting Station
Haze Haze  
Wind Chill: 61°   Ceiling: 700
Heat Index: 61°   Visibility: 1.2mi
Dew Point: 59°   Wind: 5mph
Humidity: 94%   Direction: 180°S
Pressure: 30.02"   Gusts: NA
Location:  37.36°N, 96.3°W
Report Text: KIDP 250615Z AUTO 18004KT 1 1/4SM BR VV007 16/15 A3002 RMK AO2
Loading
Personal Weather Stations






























Interactive Weather Map
Tropical Storm Tracking
New forecast layout! Learn more

10-Day Weather Forecast

Advertisements
Track Severe Weather on mobile